sensor_id;sensor_type;location;lat;lon;timestamp;pressure;altitude;pressure_sealevel;temperature;humidity
6090;BME280;3073;42.660;23.316;2022-09-09T00:00:53;94759.25;;;18.10;100.00
6090;BME280;3073;42.660;23.316;2022-09-09T00:03:25;94750.91;;;18.18;100.00
6090;BME280;3073;42.660;23.316;2022-09-09T00:05:59;94749.63;;;18.15;100.00
6090;BME280;3073;42.660;23.316;2022-09-09T00:08:36;94754.84;;;18.10;100.00
6090;BME280;3073;42.660;23.316;2022-09-09T00:11:20;94757.22;;;18.07;100.00
6090;BME280;3073;42.660;23.316;2022-09-09T00:13:52;94761.13;;;18.04;100.00
6090;BME280;3073;42.660;23.316;2022-09-09T00:16:22;94754.25;;;17.94;100.00
6090;BME280;3073;42.660;23.316;2022-09-09T00:18:57;94764.41;;;17.86;100.00
6090;BME280;3073;42.660;23.316;2022-09-09T00:21:31;94753.41;;;17.75;100.00
6090;BME280;3073;42.660;23.316;2022-09-09T00:24:04;94737.94;;;17.75;100.00
6090;BME280;3073;42.660;23.316;2022-09-09T00:26:39;94733.28;;;17.77;100.00
6090;BME280;3073;42.660;23.316;2022-09-09T00:29:16;94733.22;;;17.54;100.00
6090;BME280;3073;42.660;23.316;2022-09-09T00:31:48;94729.34;;;17.56;100.00
6090;BME280;3073;42.660;23.316;2022-09-09T00:34:21;94735.81;;;17.54;100.00
6090;BME280;3073;42.660;23.316;2022-09-09T00:36:50;94719.97;;;17.65;100.00
6090;BME280;3073;42.660;23.316;2022-09-09T00:39:25;94715.41;;;17.57;100.00
6090;BME280;3073;42.660;23.316;2022-09-09T00:42:04;94712.78;;;17.62;100.00
6090;BME280;3073;42.660;23.316;2022-09-09T00:44:37;94705.25;;;17.66;100.00
6090;BME280;3073;42.660;23.316;2022-09-09T00:47:17;94714.81;;;17.65;100.00
6090;BME280;3073;42.660;23.316;2022-09-09T00:49:59;94709.88;;;17.69;100.00
6090;BME280;3073;42.660;23.316;2022-09-09T00:52:33;94716.31;;;17.71;100.00
6090;BME280;3073;42.660;23.316;2022-09-09T00:55:06;94721.25;;;17.68;100.00
6090;BME280;3073;42.660;23.316;2022-09-09T00:57:37;94716.50;;;17.75;100.00
6090;BME280;3073;42.660;23.316;2022-09-09T01:00:19;94715.31;;;17.67;100.00
6090;BME280;3073;42.660;23.316;2022-09-09T01:02:53;94714.97;;;17.74;100.00
6090;BME280;3073;42.660;23.316;2022-09-09T01:05:30;94715.03;;;17.69;100.00
6090;BME280;3073;42.660;23.316;2022-09-09T01:08:02;94716.53;;;17.46;100.00
6090;BME280;3073;42.660;23.316;2022-09-09T01:10:38;94717.81;;;16.86;100.00
6090;BME280;3073;42.660;23.316;2022-09-09T01:13:14;94716.06;;;17.10;100.00
6090;BME280;3073;42.660;23.316;2022-09-09T01:15:44;94721.38;;;16.90;100.00
6090;BME280;3073;42.660;23.316;2022-09-09T01:18:17;94717.97;;;16.99;100.00
6090;BME280;3073;42.660;23.316;2022-09-09T01:20:53;94725.75;;;16.94;100.00
6090;BME280;3073;42.660;23.316;2022-09-09T01:23:43;94719.28;;;16.97;100.00
6090;BME280;3073;42.660;23.316;2022-09-09T01:26:22;94715.44;;;16.94;100.00
6090;BME280;3073;42.660;23.316;2022-09-09T01:28:52;94710.78;;;16.96;100.00
6090;BME280;3073;42.660;23.316;2022-09-09T01:31:21;94709.19;;;17.01;100.00
6090;BME280;3073;42.660;23.316;2022-09-09T01:33:50;94710.41;;;17.08;100.00
6090;BME280;3073;42.660;23.316;2022-09-09T01:36:28;94712.09;;;16.94;100.00
6090;BME280;3073;42.660;23.316;2022-09-09T01:38:56;94726.78;;;16.93;100.00
6090;BME280;3073;42.660;23.316;2022-09-09T01:41:24;94727.84;;;16.87;100.00
6090;BME280;3073;42.660;23.316;2022-09-09T01:43:53;94732.72;;;16.94;100.00
6090;BME280;3073;42.660;23.316;2022-09-09T01:46:22;94735.53;;;16.92;100.00
6090;BME280;3073;42.660;23.316;2022-09-09T01:48:50;94734.28;;;16.85;100.00
6090;BME280;3073;42.660;23.316;2022-09-09T01:51:17;94737.09;;;16.88;100.00
6090;BME280;3073;42.660;23.316;2022-09-09T01:53:45;94738.03;;;17.03;100.00
6090;BME280;3073;42.660;23.316;2022-09-09T01:56:21;94741.16;;;16.99;100.00
6090;BME280;3073;42.660;23.316;2022-09-09T01:59:03;94742.47;;;16.48;100.00
6090;BME280;3073;42.660;23.316;2022-09-09T02:01:45;94734.78;;;16.43;100.00
6090;BME280;3073;42.660;23.316;2022-09-09T02:04:23;94740.59;;;16.15;100.00
6090;BME280;3073;42.660;23.316;2022-09-09T02:06:55;94735.81;;;16.42;100.00
6090;BME280;3073;42.660;23.316;2022-09-09T02:09:24;94738.41;;;16.42;100.00
6090;BME280;3073;42.660;23.316;2022-09-09T02:11:57;94736.81;;;16.56;100.00
6090;BME280;3073;42.660;23.316;2022-09-09T02:14:31;94724.94;;;16.60;100.00
6090;BME280;3073;42.660;23.316;2022-09-09T02:17:05;94710.91;;;16.76;100.00
6090;BME280;3073;42.660;23.316;2022-09-09T02:19:37;94707.53;;;16.81;100.00
6090;BME280;3073;42.660;23.316;2022-09-09T02:22:05;94715.53;;;16.79;100.00
6090;BME280;3073;42.660;23.316;2022-09-09T02:24:36;94710.22;;;16.66;100.00
6090;BME280;3073;42.660;23.316;2022-09-09T02:27:06;94716.53;;;16.83;100.00
6090;BME280;3073;42.660;23.316;2022-09-09T02:29:39;94715.00;;;16.82;100.00
6090;BME280;3073;42.660;23.316;2022-09-09T02:32:08;94719.13;;;16.83;100.00
6090;BME280;3073;42.660;23.316;2022-09-09T02:34:42;94721.38;;;16.51;100.00
6090;BME280;3073;42.660;23.316;2022-09-09T02:37:11;94721.75;;;16.73;100.00
6090;BME280;3073;42.660;23.316;2022-09-09T02:39:38;94725.84;;;16.79;100.00
6090;BME280;3073;42.660;23.316;2022-09-09T02:42:05;94729.97;;;16.80;100.00
6090;BME280;3073;42.660;23.316;2022-09-09T02:44:32;94735.69;;;16.72;100.00
6090;BME280;3073;42.660;23.316;2022-09-09T02:47:13;94742.13;;;16.16;100.00
6090;BME280;3073;42.660;23.316;2022-09-09T02:49:48;94735.19;;;16.11;100.00
6090;BME280;3073;42.660;23.316;2022-09-09T02:52:21;94741.59;;;16.19;100.00
6090;BME280;3073;42.660;23.316;2022-09-09T02:54:56;94742.91;;;16.16;100.00
6090;BME280;3073;42.660;23.316;2022-09-09T02:57:27;94736.00;;;16.02;100.00
6090;BME280;3073;42.660;23.316;2022-09-09T02:59:57;94729.34;;;15.95;100.00
6090;BME280;3073;42.660;23.316;2022-09-09T03:02:26;94730.69;;;15.78;100.00
6090;BME280;3073;42.660;23.316;2022-09-09T03:04:53;94735.88;;;15.68;100.00
6090;BME280;3073;42.660;23.316;2022-09-09T03:07:20;94738.16;;;15.84;100.00
6090;BME280;3073;42.660;23.316;2022-09-09T03:09:47;94737.09;;;15.85;100.00
6090;BME280;3073;42.660;23.316;2022-09-09T03:12:15;94745.34;;;15.87;100.00
6090;BME280;3073;42.660;23.316;2022-09-09T03:14:42;94747.34;;;15.95;100.00
6090;BME280;3073;42.660;23.316;2022-09-09T03:17:10;94740.13;;;16.03;100.00
6090;BME280;3073;42.660;23.316;2022-09-09T03:19:38;94738.81;;;16.10;100.00
6090;BME280;3073;42.660;23.316;2022-09-09T03:22:06;94736.22;;;16.15;100.00
6090;BME280;3073;42.660;23.316;2022-09-09T03:24:33;94736.41;;;16.29;100.00
6090;BME280;3073;42.660;23.316;2022-09-09T03:27:00;94729.22;;;16.31;100.00
6090;BME280;3073;42.660;23.316;2022-09-09T03:29:27;94737.44;;;16.33;100.00
6090;BME280;3073;42.660;23.316;2022-09-09T03:31:54;94739.97;;;16.38;100.00
6090;BME280;3073;42.660;23.316;2022-09-09T03:34:20;94735.59;;;16.38;100.00
6090;BME280;3073;42.660;23.316;2022-09-09T03:36:49;94735.63;;;16.28;100.00
6090;BME280;3073;42.660;23.316;2022-09-09T03:39:15;94733.03;;;16.33;100.00
6090;BME280;3073;42.660;23.316;2022-09-09T03:41:42;94729.91;;;16.41;100.00
6090;BME280;3073;42.660;23.316;2022-09-09T03:44:11;94733.28;;;16.37;100.00
6090;BME280;3073;42.660;23.316;2022-09-09T03:46:38;94728.09;;;16.47;100.00
6090;BME280;3073;42.660;23.316;2022-09-09T03:49:05;94729.09;;;16.56;100.00
6090;BME280;3073;42.660;23.316;2022-09-09T03:51:32;94731.13;;;16.59;100.00
6090;BME280;3073;42.660;23.316;2022-09-09T03:54:04;94729.06;;;16.61;100.00
6090;BME280;3073;42.660;23.316;2022-09-09T03:56:33;94734.66;;;16.68;100.00
6090;BME280;3073;42.660;23.316;2022-09-09T03:59:01;94741.38;;;16.69;100.00
6090;BME280;3073;42.660;23.316;2022-09-09T04:01:29;94745.78;;;16.64;100.00
6090;BME280;3073;42.660;23.316;2022-09-09T04:03:56;94741.91;;;16.66;100.00
6090;BME280;3073;42.660;23.316;2022-09-09T04:06:24;94750.13;;;16.68;100.00
6090;BME280;3073;42.660;23.316;2022-09-09T04:08:51;94746.25;;;16.71;100.00
6090;BME280;3073;42.660;23.316;2022-09-09T04:11:19;94743.69;;;16.71;100.00
6090;BME280;3073;42.660;23.316;2022-09-09T04:13:46;94747.00;;;16.76;100.00
6090;BME280;3073;42.660;23.316;2022-09-09T04:16:14;94747.47;;;16.83;100.00
6090;BME280;3073;42.660;23.316;2022-09-09T04:18:42;94741.06;;;16.76;100.00
6090;BME280;3073;42.660;23.316;2022-09-09T04:21:10;94736.19;;;16.74;100.00
6090;BME280;3073;42.660;23.316;2022-09-09T04:23:37;94738.72;;;16.79;100.00
6090;BME280;3073;42.660;23.316;2022-09-09T04:26:04;94747.47;;;16.83;100.00
6090;BME280;3073;42.660;23.316;2022-09-09T04:28:35;94746.94;;;16.86;100.00
6090;BME280;3073;42.660;23.316;2022-09-09T04:31:07;94748.06;;;16.70;100.00
6090;BME280;3073;42.660;23.316;2022-09-09T04:33:36;94742.31;;;16.83;100.00
6090;BME280;3073;42.660;23.316;2022-09-09T04:36:05;94748.47;;;16.87;100.00
6090;BME280;3073;42.660;23.316;2022-09-09T04:38:32;94743.94;;;16.74;100.00
6090;BME280;3073;42.660;23.316;2022-09-09T04:40:58;94754.91;;;16.85;100.00
6090;BME280;3073;42.660;23.316;2022-09-09T04:43:25;94762.53;;;16.66;100.00
6090;BME280;3073;42.660;23.316;2022-09-09T04:45:54;94768.31;;;16.33;100.00
6090;BME280;3073;42.660;23.316;2022-09-09T04:48:21;94756.84;;;16.05;100.00
6090;BME280;3073;42.660;23.316;2022-09-09T04:50:56;94745.28;;;16.08;100.00
6090;BME280;3073;42.660;23.316;2022-09-09T04:53:23;94739.59;;;16.11;100.00
6090;BME280;3073;42.660;23.316;2022-09-09T04:55:51;94733.97;;;16.53;100.00
6090;BME280;3073;42.660;23.316;2022-09-09T04:58:18;94733.53;;;17.18;100.00
6090;BME280;3073;42.660;23.316;2022-09-09T05:00:47;94739.16;;;17.83;100.00
6090;BME280;3073;42.660;23.316;2022-09-09T05:03:15;94737.31;;;18.31;100.00
6090;BME280;3073;42.660;23.316;2022-09-09T05:05:42;94738.09;;;18.87;100.00
6090;BME280;3073;42.660;23.316;2022-09-09T05:08:08;94725.13;;;19.38;100.00
6090;BME280;3073;42.660;23.316;2022-09-09T05:10:37;94713.31;;;19.51;100.00
6090;BME280;3073;42.660;23.316;2022-09-09T05:13:05;94723.78;;;20.00;100.00
6090;BME280;3073;42.660;23.316;2022-09-09T05:15:33;94732.19;;;20.47;100.00
6090;BME280;3073;42.660;23.316;2022-09-09T05:18:01;94734.13;;;20.77;100.00
6090;BME280;3073;42.660;23.316;2022-09-09T05:20:30;94733.53;;;21.02;100.00
6090;BME280;3073;42.660;23.316;2022-09-09T05:22:57;94725.19;;;21.58;100.00
6090;BME280;3073;42.660;23.316;2022-09-09T05:25:24;94721.09;;;21.66;100.00
6090;BME280;3073;42.660;23.316;2022-09-09T05:27:51;94719.94;;;21.50;100.00
6090;BME280;3073;42.660;23.316;2022-09-09T05:30:19;94731.16;;;21.90;100.00
6090;BME280;3073;42.660;23.316;2022-09-09T05:32:47;94732.75;;;22.17;100.00
6090;BME280;3073;42.660;23.316;2022-09-09T05:35:14;94733.63;;;22.77;100.00
6090;BME280;3073;42.660;23.316;2022-09-09T05:37:43;94725.66;;;22.99;100.00
6090;BME280;3073;42.660;23.316;2022-09-09T05:40:11;94727.47;;;23.25;100.00
6090;BME280;3073;42.660;23.316;2022-09-09T05:42:38;94732.31;;;23.52;100.00
6090;BME280;3073;42.660;23.316;2022-09-09T05:45:06;94733.88;;;23.91;100.00
6090;BME280;3073;42.660;23.316;2022-09-09T05:47:34;94737.50;;;24.07;100.00
6090;BME280;3073;42.660;23.316;2022-09-09T05:50:03;94754.25;;;24.56;100.00
6090;BME280;3073;42.660;23.316;2022-09-09T05:52:30;94747.53;;;24.55;100.00
6090;BME280;3073;42.660;23.316;2022-09-09T05:55:02;94737.78;;;24.64;100.00
6090;BME280;3073;42.660;23.316;2022-09-09T05:57:29;94745.75;;;24.09;100.00
6090;BME280;3073;42.660;23.316;2022-09-09T05:59:56;94743.41;;;24.25;100.00
6090;BME280;3073;42.660;23.316;2022-09-09T06:02:23;94740.28;;;24.81;96.04
6090;BME280;3073;42.660;23.316;2022-09-09T06:04:50;94759.63;;;24.80;93.01
6090;BME280;3073;42.660;23.316;2022-09-09T06:07:17;94753.78;;;25.04;90.97
6090;BME280;3073;42.660;23.316;2022-09-09T06:09:45;94752.84;;;25.08;95.39
6090;BME280;3073;42.660;23.316;2022-09-09T06:12:14;94760.59;;;23.88;100.00
6090;BME280;3073;42.660;23.316;2022-09-09T06:14:41;94756.59;;;23.09;100.00
6090;BME280;3073;42.660;23.316;2022-09-09T06:17:07;94749.84;;;22.83;100.00
6090;BME280;3073;42.660;23.316;2022-09-09T06:19:34;94753.66;;;23.20;100.00
6090;BME280;3073;42.660;23.316;2022-09-09T06:22:01;94754.91;;;23.05;100.00
6090;BME280;3073;42.660;23.316;2022-09-09T06:24:28;94748.88;;;23.39;100.00
6090;BME280;3073;42.660;23.316;2022-09-09T06:26:55;94752.34;;;23.69;100.00
6090;BME280;3073;42.660;23.316;2022-09-09T06:29:24;94756.19;;;23.71;100.00
6090;BME280;3073;42.660;23.316;2022-09-09T06:31:51;94763.88;;;23.59;100.00
6090;BME280;3073;42.660;23.316;2022-09-09T06:34:18;94754.91;;;24.53;100.00
6090;BME280;3073;42.660;23.316;2022-09-09T06:36:44;94755.06;;;24.98;100.00
6090;BME280;3073;42.660;23.316;2022-09-09T06:39:11;94744.44;;;25.81;85.06
6090;BME280;3073;42.660;23.316;2022-09-09T06:41:39;94736.81;;;25.76;78.68
6090;BME280;3073;42.660;23.316;2022-09-09T06:44:06;94739.00;;;25.74;78.67
6090;BME280;3073;42.660;23.316;2022-09-09T06:46:34;94740.22;;;25.43;78.37
6090;BME280;3073;42.660;23.316;2022-09-09T06:49:02;94739.28;;;24.94;84.70
6090;BME280;3073;42.660;23.316;2022-09-09T06:51:30;94738.75;;;25.22;83.87
6090;BME280;3073;42.660;23.316;2022-09-09T06:53:58;94752.78;;;26.31;75.36
6090;BME280;3073;42.660;23.316;2022-09-09T06:56:27;94755.91;;;26.37;75.74
6090;BME280;3073;42.660;23.316;2022-09-09T06:58:55;94761.34;;;26.56;73.64
6090;BME280;3073;42.660;23.316;2022-09-09T07:01:23;94764.44;;;27.26;68.57
6090;BME280;3073;42.660;23.316;2022-09-09T07:03:53;94755.84;;;27.69;67.75
6090;BME280;3073;42.660;23.316;2022-09-09T07:06:23;94757.50;;;27.18;72.23
6090;BME280;3073;42.660;23.316;2022-09-09T07:08:51;94753.91;;;27.10;72.45
6090;BME280;3073;42.660;23.316;2022-09-09T07:11:19;94765.88;;;27.23;72.52
6090;BME280;3073;42.660;23.316;2022-09-09T07:13:46;94754.44;;;25.54;78.43
6090;BME280;3073;42.660;23.316;2022-09-09T07:16:14;94750.00;;;26.16;76.50
6090;BME280;3073;42.660;23.316;2022-09-09T07:18:41;94753.72;;;26.39;75.05
6090;BME280;3073;42.660;23.316;2022-09-09T07:21:11;94744.41;;;27.18;70.91
6090;BME280;3073;42.660;23.316;2022-09-09T07:23:38;94756.75;;;27.33;68.28
6090;BME280;3073;42.660;23.316;2022-09-09T07:26:09;94743.25;;;28.21;66.49
6090;BME280;3073;42.660;23.316;2022-09-09T07:28:36;94749.13;;;28.84;62.07
6090;BME280;3073;42.660;23.316;2022-09-09T07:31:04;94753.84;;;28.94;60.54
6090;BME280;3073;42.660;23.316;2022-09-09T07:33:32;94743.69;;;28.58;61.07
6090;BME280;3073;42.660;23.316;2022-09-09T07:36:04;94743.38;;;28.44;60.90
6090;BME280;3073;42.660;23.316;2022-09-09T07:38:37;94743.63;;;29.28;56.74
6090;BME280;3073;42.660;23.316;2022-09-09T07:41:06;94742.09;;;29.27;56.56
6090;BME280;3073;42.660;23.316;2022-09-09T07:43:37;94752.75;;;29.34;56.62
6090;BME280;3073;42.660;23.316;2022-09-09T07:46:04;94753.56;;;28.99;58.24
6090;BME280;3073;42.660;23.316;2022-09-09T07:48:31;94757.25;;;28.95;58.31
6090;BME280;3073;42.660;23.316;2022-09-09T07:51:09;94757.25;;;29.75;56.28
6090;BME280;3073;42.660;23.316;2022-09-09T07:53:38;94759.03;;;30.17;55.14
6090;BME280;3073;42.660;23.316;2022-09-09T07:56:08;94753.63;;;30.55;52.80
6090;BME280;3073;42.660;23.316;2022-09-09T07:58:36;94754.44;;;30.89;50.19
6090;BME280;3073;42.660;23.316;2022-09-09T08:01:07;94753.34;;;30.63;51.14
6090;BME280;3073;42.660;23.316;2022-09-09T08:03:35;94749.81;;;29.81;52.14
6090;BME280;3073;42.660;23.316;2022-09-09T08:06:02;94742.19;;;29.76;53.00
6090;BME280;3073;42.660;23.316;2022-09-09T08:08:29;94751.50;;;29.70;53.33
6090;BME280;3073;42.660;23.316;2022-09-09T08:11:08;94750.28;;;29.86;53.36
6090;BME280;3073;42.660;23.316;2022-09-09T08:13:37;94746.22;;;29.70;54.01
6090;BME280;3073;42.660;23.316;2022-09-09T08:16:06;94747.13;;;30.00;53.16
6090;BME280;3073;42.660;23.316;2022-09-09T08:18:33;94743.72;;;30.22;51.25
6090;BME280;3073;42.660;23.316;2022-09-09T08:21:08;94743.34;;;29.97;51.28
6090;BME280;3073;42.660;23.316;2022-09-09T08:23:37;94747.59;;;30.54;51.21
6090;BME280;3073;42.660;23.316;2022-09-09T08:26:10;94742.81;;;29.88;51.60
6090;BME280;3073;42.660;23.316;2022-09-09T08:28:39;94745.69;;;29.38;52.82
6090;BME280;3073;42.660;23.316;2022-09-09T08:31:11;94733.78;;;28.67;55.27
6090;BME280;3073;42.660;23.316;2022-09-09T08:33:39;94736.06;;;28.18;57.06
6090;BME280;3073;42.660;23.316;2022-09-09T08:36:09;94736.72;;;27.84;60.83
6090;BME280;3073;42.660;23.316;2022-09-09T08:38:36;94741.13;;;28.27;62.75
6090;BME280;3073;42.660;23.316;2022-09-09T08:41:20;94748.75;;;28.32;62.17
6090;BME280;3073;42.660;23.316;2022-09-09T08:44:00;94748.22;;;28.26;58.44
6090;BME280;3073;42.660;23.316;2022-09-09T08:46:35;94736.03;;;28.02;57.91
6090;BME280;3073;42.660;23.316;2022-09-09T08:49:17;94738.41;;;28.39;58.44
6090;BME280;3073;42.660;23.316;2022-09-09T08:51:48;94735.59;;;29.01;55.69
6090;BME280;3073;42.660;23.316;2022-09-09T08:54:15;94735.66;;;29.66;55.25
6090;BME280;3073;42.660;23.316;2022-09-09T08:56:43;94736.22;;;30.24;52.78
6090;BME280;3073;42.660;23.316;2022-09-09T08:59:13;94733.44;;;30.96;50.20
6090;BME280;3073;42.660;23.316;2022-09-09T09:02:05;94733.50;;;31.73;47.15
6090;BME280;3073;42.660;23.316;2022-09-09T09:05:13;94728.34;;;31.87;46.72
6090;BME280;3073;42.660;23.316;2022-09-09T09:07:55;94741.28;;;32.54;45.88
6090;BME280;3073;42.660;23.316;2022-09-09T09:10:35;94741.22;;;31.92;46.16
6090;BME280;3073;42.660;23.316;2022-09-09T09:13:12;94735.69;;;31.27;45.99
6090;BME280;3073;42.660;23.316;2022-09-09T09:15:41;94732.66;;;30.13;47.79
6090;BME280;3073;42.660;23.316;2022-09-09T09:18:12;94727.63;;;29.59;50.45
6090;BME280;3073;42.660;23.316;2022-09-09T09:20:47;94733.78;;;28.86;53.38
6090;BME280;3073;42.660;23.316;2022-09-09T09:23:21;94733.13;;;29.50;52.02
6090;BME280;3073;42.660;23.316;2022-09-09T09:25:52;94719.28;;;29.53;51.35
6090;BME280;3073;42.660;23.316;2022-09-09T09:28:24;94721.56;;;29.55;51.00
6090;BME280;3073;42.660;23.316;2022-09-09T09:30:55;94733.00;;;29.66;51.02
6090;BME280;3073;42.660;23.316;2022-09-09T09:33:27;94739.06;;;29.05;52.53
6090;BME280;3073;42.660;23.316;2022-09-09T09:35:55;94735.59;;;29.01;53.40
6090;BME280;3073;42.660;23.316;2022-09-09T09:38:24;94722.50;;;29.66;53.52
6090;BME280;3073;42.660;23.316;2022-09-09T09:40:54;94719.53;;;30.69;52.30
6090;BME280;3073;42.660;23.316;2022-09-09T09:43:27;94714.56;;;31.27;49.45
6090;BME280;3073;42.660;23.316;2022-09-09T09:45:54;94713.34;;;31.18;48.49
6090;BME280;3073;42.660;23.316;2022-09-09T09:48:23;94707.38;;;31.61;47.27
6090;BME280;3073;42.660;23.316;2022-09-09T09:50:52;94711.34;;;31.85;46.26
6090;BME280;3073;42.660;23.316;2022-09-09T09:53:22;94711.44;;;31.51;45.64
6090;BME280;3073;42.660;23.316;2022-09-09T09:55:55;94695.78;;;30.66;46.95
6090;BME280;3073;42.660;23.316;2022-09-09T09:58:25;94699.25;;;30.43;47.87
6090;BME280;3073;42.660;23.316;2022-09-09T10:00:53;94700.06;;;29.95;50.50
6090;BME280;3073;42.660;23.316;2022-09-09T10:03:26;94698.63;;;30.27;48.37
6090;BME280;3073;42.660;23.316;2022-09-09T10:05:54;94701.06;;;30.39;49.47
6090;BME280;3073;42.660;23.316;2022-09-09T10:08:22;94708.81;;;30.02;49.36
6090;BME280;3073;42.660;23.316;2022-09-09T10:11:12;94712.47;;;29.10;52.13
6090;BME280;3073;42.660;23.316;2022-09-09T10:13:50;94711.38;;;28.92;54.76
6090;BME280;3073;42.660;23.316;2022-09-09T10:16:28;94714.91;;;28.11;57.08
6090;BME280;3073;42.660;23.316;2022-09-09T10:18:59;94710.66;;;28.57;57.40
6090;BME280;3073;42.660;23.316;2022-09-09T10:27:50;94708.94;;;28.30;56.03
6090;BME280;3073;42.660;23.316;2022-09-09T10:30:24;94711.94;;;28.12;58.12
6090;BME280;3073;42.660;23.316;2022-09-09T10:33:04;94715.41;;;27.85;62.07
6090;BME280;3073;42.660;23.316;2022-09-09T10:35:42;94707.69;;;27.92;58.86
6090;BME280;3073;42.660;23.316;2022-09-09T10:38:16;94716.41;;;27.96;61.59
6090;BME280;3073;42.660;23.316;2022-09-09T10:40:58;94718.56;;;27.75;63.39
6090;BME280;3073;42.660;23.316;2022-09-09T10:43:40;94718.59;;;27.20;64.92
6090;BME280;3073;42.660;23.316;2022-09-09T10:46:18;94718.81;;;27.27;66.90
6090;BME280;3073;42.660;23.316;2022-09-09T10:49:01;94726.72;;;26.87;69.73
6090;BME280;3073;42.660;23.316;2022-09-09T10:51:38;94720.75;;;26.62;73.01
6090;BME280;3073;42.660;23.316;2022-09-09T10:54:21;94719.22;;;26.85;76.07
6090;BME280;3073;42.660;23.316;2022-09-09T10:56:54;94716.56;;;27.13;73.88
6090;BME280;3073;42.660;23.316;2022-09-09T10:59:26;94718.78;;;26.71;71.87
6090;BME280;3073;42.660;23.316;2022-09-09T11:01:57;94715.06;;;26.84;72.61
6090;BME280;3073;42.660;23.316;2022-09-09T11:04:32;94713.75;;;26.78;72.56
6090;BME280;3073;42.660;23.316;2022-09-09T11:07:06;94709.16;;;26.87;75.29
6090;BME280;3073;42.660;23.316;2022-09-09T11:09:38;94721.34;;;26.95;74.91
6090;BME280;3073;42.660;23.316;2022-09-09T11:12:12;94714.91;;;26.93;74.57
6090;BME280;3073;42.660;23.316;2022-09-09T11:14:44;94720.47;;;26.79;76.55
6090;BME280;3073;42.660;23.316;2022-09-09T11:17:15;94714.28;;;26.84;75.44
6090;BME280;3073;42.660;23.316;2022-09-09T11:19:45;94707.72;;;26.90;76.32
6090;BME280;3073;42.660;23.316;2022-09-09T11:22:18;94707.53;;;27.10;74.98
6090;BME280;3073;42.660;23.316;2022-09-09T11:24:50;94700.53;;;27.58;72.96
6090;BME280;3073;42.660;23.316;2022-09-09T11:27:23;94695.22;;;27.42;72.35
6090;BME280;3073;42.660;23.316;2022-09-09T11:30:18;94697.31;;;27.80;71.20
6090;BME280;3073;42.660;23.316;2022-09-09T11:33:22;94681.19;;;28.13;68.40
6090;BME280;3073;42.660;23.316;2022-09-09T11:36:05;94668.88;;;28.33;66.79
6090;BME280;3073;42.660;23.316;2022-09-09T11:38:39;94672.16;;;28.45;68.40
6090;BME280;3073;42.660;23.316;2022-09-09T11:41:11;94666.47;;;28.62;67.01
6090;BME280;3073;42.660;23.316;2022-09-09T11:43:41;94663.09;;;28.43;66.48
6090;BME280;3073;42.660;23.316;2022-09-09T11:46:10;94654.31;;;28.54;65.79
6090;BME280;3073;42.660;23.316;2022-09-09T11:48:42;94641.41;;;28.65;64.78
6090;BME280;3073;42.660;23.316;2022-09-09T11:51:12;94620.25;;;28.58;67.84
6090;BME280;3073;42.660;23.316;2022-09-09T11:53:58;94615.47;;;27.90;67.97
6090;BME280;3073;42.660;23.316;2022-09-09T11:56:29;94624.53;;;27.77;71.16
6090;BME280;3073;42.660;23.316;2022-09-09T11:58:59;94625.97;;;27.90;73.13
6090;BME280;3073;42.660;23.316;2022-09-09T12:01:33;94627.53;;;28.45;68.72
6090;BME280;3073;42.660;23.316;2022-09-09T12:04:20;94633.97;;;28.67;67.06
6090;BME280;3073;42.660;23.316;2022-09-09T12:06:56;94634.63;;;28.83;65.50
6090;BME280;3073;42.660;23.316;2022-09-09T12:09:31;94629.25;;;29.18;66.20
6090;BME280;3073;42.660;23.316;2022-09-09T12:12:24;94623.44;;;29.77;63.75
6090;BME280;3073;42.660;23.316;2022-09-09T12:15:01;94621.16;;;30.91;60.11
6090;BME280;3073;42.660;23.316;2022-09-09T12:17:30;94617.03;;;31.31;57.03
6090;BME280;3073;42.660;23.316;2022-09-09T12:20:06;94613.72;;;31.92;54.93
6090;BME280;3073;42.660;23.316;2022-09-09T12:22:40;94612.38;;;32.12;52.74
6090;BME280;3073;42.660;23.316;2022-09-09T12:25:20;94620.53;;;31.96;54.40
6090;BME280;3073;42.660;23.316;2022-09-09T12:28:00;94613.84;;;31.55;53.21
6090;BME280;3073;42.660;23.316;2022-09-09T12:30:32;94609.78;;;31.64;55.44
6090;BME280;3073;42.660;23.316;2022-09-09T12:33:02;94601.69;;;31.98;54.62
6090;BME280;3073;42.660;23.316;2022-09-09T12:35:40;94600.69;;;32.20;53.08
6090;BME280;3073;42.660;23.316;2022-09-09T12:38:13;94597.31;;;32.27;52.14
6090;BME280;3073;42.660;23.316;2022-09-09T12:40:41;94587.28;;;30.93;53.95
6090;BME280;3073;42.660;23.316;2022-09-09T12:43:18;94585.16;;;30.39;56.77
6090;BME280;3073;42.660;23.316;2022-09-09T12:45:46;94596.56;;;29.87;59.09
6090;BME280;3073;42.660;23.316;2022-09-09T12:48:17;94595.94;;;29.97;60.36
6090;BME280;3073;42.660;23.316;2022-09-09T12:50:49;94586.97;;;29.04;64.40
6090;BME280;3073;42.660;23.316;2022-09-09T12:53:21;94581.88;;;29.14;64.11
6090;BME280;3073;42.660;23.316;2022-09-09T12:55:51;94584.22;;;29.91;63.43
6090;BME280;3073;42.660;23.316;2022-09-09T12:58:19;94568.09;;;29.96;60.85
6090;BME280;3073;42.660;23.316;2022-09-09T13:00:50;94559.22;;;29.52;63.14
6090;BME280;3073;42.660;23.316;2022-09-09T13:03:19;94566.66;;;29.50;62.84
6090;BME280;3073;42.660;23.316;2022-09-09T13:05:49;94563.09;;;29.61;63.40
6090;BME280;3073;42.660;23.316;2022-09-09T13:08:20;94568.22;;;29.05;64.09
6090;BME280;3073;42.660;23.316;2022-09-09T13:10:49;94564.19;;;28.89;66.13
6090;BME280;3073;42.660;23.316;2022-09-09T13:13:21;94566.50;;;28.52;67.61
6090;BME280;3073;42.660;23.316;2022-09-09T13:15:51;94560.31;;;28.22;72.18
6090;BME280;3073;42.660;23.316;2022-09-09T13:18:22;94553.44;;;28.36;70.07
6090;BME280;3073;42.660;23.316;2022-09-09T13:20:51;94550.41;;;28.34;71.41
6090;BME280;3073;42.660;23.316;2022-09-09T13:23:19;94556.00;;;28.52;70.40
6090;BME280;3073;42.660;23.316;2022-09-09T13:25:55;94557.78;;;28.67;68.94
6090;BME280;3073;42.660;23.316;2022-09-09T13:28:24;94541.19;;;28.63;69.74
6090;BME280;3073;42.660;23.316;2022-09-09T13:30:58;94521.41;;;28.08;72.15
6090;BME280;3073;42.660;23.316;2022-09-09T13:33:31;94528.34;;;28.00;74.40